• Join FlightAware (Why Join?)
  • Login
  • US Flag 
12:21PM EDT


 

Airport Tracker/Info


-or-


 

Live Flight TrackerFlight Track Log ✈ FLX730 ✈ 30-Nov-2011 ✈ KSLN - KMKC

Flight Track Log - Related Links

Times and Time Zones

All times are in EST time to prevent confusion due to time zone crossing. See the FLX730 flight status page for this flight to view local times or setup timezone preferences in your user account.

Time Position Orientation Groundspeed Altitude Reporting Facility
EST Latitude Longitude Course Direction KTS MPH feet Rate Location/Type
05:01PM 38.7975 -97.5973 217° Southwest  Level FlightAware Approximate
05:02PM 38.7778 -97.6164 74° East 150 173 2,300  Level Kansas City Center
05:03PM 38.7847 -97.5847 79° East 118 136 3,400 960 Climbing Kansas City Center
05:04PM 38.7922 -97.5372 79° East 113 130 4,300 780 Climbing Kansas City Center
05:05PM 38.7997 -97.4869 82° East 125 144 5,000 660 Climbing Kansas City Center
05:06PM 38.8053 -97.4364 81° East 130 150 5,700 660 Climbing Kansas City Center
05:07PM 38.8106 -97.3914 85° East 143 165 6,400 600 Climbing Kansas City Center
05:08PM 38.8139 -97.3383 78° East 143 165 7,000 300 Climbing Kansas City Center
05:09PM 38.8236 -97.2772 83° East 148 170 7,100  Climbing Kansas City Center
05:10PM 38.8292 -97.2161 86° East 163 188 7,100  Level Kansas City Center
05:11PM 38.8328 -97.1525 83° East 168 193 7,100  Level Kansas City Center
05:12PM 38.8381 -97.0992 80° East 168 193 7,100 -60 Level Kansas City Center
05:13PM 38.8478 -97.0278 78° East 173 199 7,000 -60 Descending Kansas City Center
05:14PM 38.8575 -96.9667 81° East 173 199 7,000  Level Kansas City Center
05:15PM 38.8650 -96.9028 80° East 178 205 7,000  Level Kansas City Center
05:16PM 38.8725 -96.8472 81° East 178 205 7,100  Climbing Kansas City Center
05:17PM 38.8797 -96.7861 81° East 178 205 7,100  Level Kansas City Center
05:18PM 38.8872 -96.7222 81° East 178 205 7,100  Level Kansas City Center
05:19PM 38.8947 -96.6611 80° East 178 205 7,100  Level Kansas City Center
05:20PM 38.9042 -96.5894 79° East 178 205 7,100 -60 Level Kansas City Center
05:21PM 38.9136 -96.5256 81° East 178 205 7,000  Descending Kansas City Center
05:22PM 38.9211 -96.4644 84° East 178 205 7,100  Climbing Kansas City Center
05:23PM 38.9261 -96.4058 83° East 178 205 7,100  Level Kansas City Center
05:24PM 38.9333 -96.3342 84° East 178 205 7,100  Level Kansas City Center
05:25PM 38.9386 -96.2700 79° East 178 205 7,100  Level Kansas City Center
05:26PM 38.9478 -96.2089 84° East 178 205 7,100  Level Kansas City Center
05:27PM 38.9528 -96.1422 81° East 183 211 7,100  Level Kansas City Center
05:28PM 38.9600 -96.0811 76° East 183 211 7,100  Level Kansas City Center
05:29PM 38.9711 -96.0225 85° East 176 203 7,200  Climbing Kansas City Center
05:30PM 38.9761 -95.9533 82° East 176 203 7,100  Descending Kansas City Center
05:31PM 38.9831 -95.8892 82° East 176 203 7,200  Climbing Kansas City Center
05:32PM 38.9900 -95.8281 81° East 176 203 7,200  Level Kansas City Center
05:33PM 38.9969 -95.7719 81° East 181 208 7,300 -180 Climbing Kansas City Center
05:34PM 39.0061 -95.7000 82° East 181 208 6,900 -240 Descending Kansas City Center
05:35PM 39.0131 -95.6333 82° East 181 208 6,900 60 Level Kansas City Center
05:36PM 39.0197 -95.5747 79° East 176 203 7,100  Climbing Kansas City Center
05:37PM 39.0286 -95.5133 83° East 176 203 7,000  Descending Kansas City Center
05:38PM 39.0356 -95.4439 82° East 181 208 7,100  Climbing Kansas City Center
05:39PM 39.0422 -95.3800 84° East 181 208 7,000 -60 Descending Kansas City Center
05:40PM 39.0467 -95.3211 83° East 181 208 7,000  Level Kansas City Center
05:41PM 39.0533 -95.2544 83° East 181 208 7,000  Level Kansas City Center
05:42PM 39.0600 -95.1822 81° East 181 208 7,000 -300 Level Kansas City Center
05:43PM 39.0689 -95.1128 80° East 181 208 6,500 -600 Descending Kansas City Center
05:44PM 39.0775 -95.0489 80° East 193 222 5,900 -780 Descending Kansas City Center
05:45PM 39.0883 -94.9714 81° East 201 231 5,000 -900 Descending Kansas City Center
05:46PM 39.0969 -94.8992 87° East 201 231 4,200 -840 Descending Kansas City Center
05:47PM 39.0992 -94.8350 83° East 201 231 3,400 -720 Descending Kansas City Center
05:48PM 39.1056 -94.7681 88° East 194 223 2,800 -660 Descending Kansas City Center
05:49PM 39.1078 -94.6958 88° East 189 217 2,100 -720 Descending Kansas City Center